Kezdőlap
METAR-TAF:

METAR-TAF

Repülőterek :

Kano, Nigéria

földrajzi szélesség: 12-03N, földrajzi hosszúság: 008-32E, magasság: 476 m

Jelenlegi meteorológiai megfigyelések

A jelentés 45 perccel ezelõtt készült, 00:00 UTC
Délnyugati szél 15 kt
Hőmérséklet 31°C
Páratartalom 63%
Légköri nyomás 1013 hPa
Látótávolság 10 km, vagy több
felhőtlen 1500 m magasságban, és nincs gomolyfelhõ

METAR: DNKN 050000Z 22015KT CAVOK 31/23 Q1013 NOSIG

Idő: 01:45 (00:45 UTC)

Előrejelzés

A jelentés 1 órával és 45 perccel ezelõtt készült, 23:00 UTC
Az előrejelzés 05-én 00 óra UTC és 06-én 06 óra UTC között érvényes
Délnyugati szél 10 kt
Látótávolság 10 km, vagy több
felhőtlen 1500 m magasságban, és nincs gomolyfelhõ

TAF: DNKN 042300Z 0500/0606 23010KT CAVOK

Meteorológiai megfigyelések és előrejelzések több, mint 4000 repülőtéren (METAR és TAF jelentéseket).

A térképen piros és sárga pontok jelzik az elérhető meteorológiai állomásokat.

Mozgassa az egeret a pont fölött, hogy megjelenjen az állomás neve.

Azután kattintson az időjárási megfigyelések és előrejelzések megtekintéséhez.

A térkép megváltoztatása: kattintson a fekete keresztel jelölt zöld gombra ráközelítéshez, a vonallal jelölt zöld gombra távolításhoz, vagy a zöld nyilakra a szomszédos térképek eléréséhez.


METAR-TAF: